sensor_id;sensor_type;location;lat;lon;timestamp;pressure;altitude;pressure_sealevel;temperature;humidity
51259;BME280;37327;54.254;18.504;2022-07-12T00:00:01;101225.89;;;13.68;100.00
51259;BME280;37327;54.254;18.504;2022-07-12T00:03:18;101229.64;;;13.67;100.00
51259;BME280;37327;54.254;18.504;2022-07-12T00:06:32;101224.40;;;13.66;100.00
51259;BME280;37327;54.254;18.504;2022-07-12T00:10:05;101226.63;;;13.62;100.00
51259;BME280;37327;54.254;18.504;2022-07-12T00:13:18;101218.84;;;13.59;100.00
51259;BME280;37327;54.254;18.504;2022-07-12T00:16:30;101211.75;;;13.58;100.00
51259;BME280;37327;54.254;18.504;2022-07-12T00:19:43;101217.18;;;13.58;100.00
51259;BME280;37327;54.254;18.504;2022-07-12T00:22:55;101220.07;;;13.56;100.00
51259;BME280;37327;54.254;18.504;2022-07-12T00:26:07;101220.63;;;13.52;100.00
51259;BME280;37327;54.254;18.504;2022-07-12T00:29:19;101216.22;;;13.51;100.00
51259;BME280;37327;54.254;18.504;2022-07-12T00:32:31;101209.95;;;13.50;100.00
51259;BME280;37327;54.254;18.504;2022-07-12T00:35:44;101215.38;;;13.50;100.00
51259;BME280;37327;54.254;18.504;2022-07-12T00:38:56;101211.36;;;13.46;100.00
51259;BME280;37327;54.254;18.504;2022-07-12T00:42:07;101215.26;;;13.43;100.00
51259;BME280;37327;54.254;18.504;2022-07-12T00:45:20;101220.02;;;13.41;100.00
51259;BME280;37327;54.254;18.504;2022-07-12T00:48:34;101220.23;;;13.40;100.00
51259;BME280;37327;54.254;18.504;2022-07-12T00:51:47;101224.79;;;13.39;100.00
51259;BME280;37327;54.254;18.504;2022-07-12T00:54:59;101216.00;;;13.37;100.00
51259;BME280;37327;54.254;18.504;2022-07-12T00:58:12;101225.52;;;13.33;100.00
51259;BME280;37327;54.254;18.504;2022-07-12T01:01:24;101222.99;;;13.32;100.00
51259;BME280;37327;54.254;18.504;2022-07-12T01:04:37;101214.86;;;13.32;100.00
51259;BME280;37327;54.254;18.504;2022-07-12T01:07:52;101222.16;;;13.31;100.00
51259;BME280;37327;54.254;18.504;2022-07-12T01:11:01;101217.77;;;13.30;100.00
51259;BME280;37327;54.254;18.504;2022-07-12T01:14:10;101219.62;;;13.30;100.00
51259;BME280;37327;54.254;18.504;2022-07-12T01:17:25;101217.26;;;13.27;100.00
51259;BME280;37327;54.254;18.504;2022-07-12T01:20:40;101210.99;;;13.26;100.00
51259;BME280;37327;54.254;18.504;2022-07-12T01:23:52;101217.43;;;13.25;100.00
51259;BME280;37327;54.254;18.504;2022-07-12T01:27:07;101218.66;;;13.22;100.00
51259;BME280;37327;54.254;18.504;2022-07-12T01:30:20;101217.79;;;13.22;100.00
51259;BME280;37327;54.254;18.504;2022-07-12T01:33:32;101221.52;;;13.21;100.00
51259;BME280;37327;54.254;18.504;2022-07-12T01:36:49;101214.06;;;13.23;100.00
51259;BME280;37327;54.254;18.504;2022-07-12T01:40:07;101213.41;;;13.21;100.00
51259;BME280;37327;54.254;18.504;2022-07-12T01:43:23;101211.53;;;13.21;100.00
51259;BME280;37327;54.254;18.504;2022-07-12T01:46:35;101209.64;;;13.22;100.00
51259;BME280;37327;54.254;18.504;2022-07-12T01:49:46;101204.22;;;13.22;100.00
51259;BME280;37327;54.254;18.504;2022-07-12T01:52:58;101202.38;;;13.22;100.00
51259;BME280;37327;54.254;18.504;2022-07-12T01:56:09;101210.52;;;13.22;100.00
51259;BME280;37327;54.254;18.504;2022-07-12T01:59:23;101203.56;;;13.20;100.00
51259;BME280;37327;54.254;18.504;2022-07-12T02:02:36;101205.63;;;13.18;100.00
51259;BME280;37327;54.254;18.504;2022-07-12T02:12:19;101201.41;;;13.15;100.00
51259;BME280;37327;54.254;18.504;2022-07-12T02:15:30;101211.25;;;13.16;100.00
51259;BME280;37327;54.254;18.504;2022-07-12T02:18:45;101209.38;;;13.17;100.00
51259;BME280;37327;54.254;18.504;2022-07-12T02:21:56;101208.98;;;13.20;100.00
51259;BME280;37327;54.254;18.504;2022-07-12T02:25:07;101206.28;;;13.20;100.00
51259;BME280;37327;54.254;18.504;2022-07-12T02:28:23;101201.89;;;13.19;100.00
51259;BME280;37327;54.254;18.504;2022-07-12T02:31:34;101208.16;;;13.19;100.00
51259;BME280;37327;54.254;18.504;2022-07-12T02:34:48;101196.47;;;13.19;100.00
51259;BME280;37327;54.254;18.504;2022-07-12T02:37:59;101187.68;;;13.17;100.00
51259;BME280;37327;54.254;18.504;2022-07-12T02:41:09;101193.10;;;13.17;100.00
51259;BME280;37327;54.254;18.504;2022-07-12T02:44:24;101193.10;;;13.17;100.00
51259;BME280;37327;54.254;18.504;2022-07-12T02:47:31;101189.35;;;13.18;100.00
51259;BME280;37327;54.254;18.504;2022-07-12T02:50:42;101198.14;;;13.20;100.00
51259;BME280;37327;54.254;18.504;2022-07-12T02:53:56;101188.16;;;13.20;100.00
51259;BME280;37327;54.254;18.504;2022-07-12T02:57:06;101185.24;;;13.22;100.00
51259;BME280;37327;54.254;18.504;2022-07-12T03:00:12;101192.37;;;13.23;100.00
51259;BME280;37327;54.254;18.504;2022-07-12T03:03:42;101191.36;;;13.24;100.00
51259;BME280;37327;54.254;18.504;2022-07-12T03:06:49;101189.30;;;13.26;100.00
51259;BME280;37327;54.254;18.504;2022-07-12T03:10:07;101189.97;;;13.28;100.00
51259;BME280;37327;54.254;18.504;2022-07-12T03:13:22;101185.23;;;13.30;100.00
51259;BME280;37327;54.254;18.504;2022-07-12T03:16:39;101174.01;;;13.33;100.00
51259;BME280;37327;54.254;18.504;2022-07-12T03:19:51;101171.59;;;13.38;100.00
51259;BME280;37327;54.254;18.504;2022-07-12T03:23:21;101175.63;;;13.42;100.00
51259;BME280;37327;54.254;18.504;2022-07-12T03:26:28;101170.67;;;13.46;100.00
51259;BME280;37327;54.254;18.504;2022-07-12T03:29:43;101182.84;;;13.50;100.00
51259;BME280;37327;54.254;18.504;2022-07-12T03:32:55;101172.07;;;13.57;100.00
51259;BME280;37327;54.254;18.504;2022-07-12T03:39:24;101169.96;;;13.67;100.00
51259;BME280;37327;54.254;18.504;2022-07-12T03:42:41;101164.79;;;13.72;100.00
51259;BME280;37327;54.254;18.504;2022-07-12T03:45:54;101166.97;;;13.77;100.00
51259;BME280;37327;54.254;18.504;2022-07-12T03:49:10;101171.45;;;13.85;100.00
51259;BME280;37327;54.254;18.504;2022-07-12T03:52:21;101172.27;;;14.00;100.00
51259;BME280;37327;54.254;18.504;2022-07-12T03:55:35;101170.67;;;14.20;100.00
51259;BME280;37327;54.254;18.504;2022-07-12T03:58:52;101166.43;;;14.33;100.00
51259;BME280;37327;54.254;18.504;2022-07-12T04:02:04;101166.06;;;14.36;100.00
51259;BME280;37327;54.254;18.504;2022-07-12T04:05:15;101165.88;;;14.37;100.00
51259;BME280;37327;54.254;18.504;2022-07-12T04:08:27;101162.12;;;14.38;100.00
51259;BME280;37327;54.254;18.504;2022-07-12T04:11:43;101158.16;;;14.41;100.00
51259;BME280;37327;54.254;18.504;2022-07-12T04:15:00;101146.93;;;14.44;100.00
51259;BME280;37327;54.254;18.504;2022-07-12T04:18:16;101146.71;;;14.60;100.00
51259;BME280;37327;54.254;18.504;2022-07-12T04:21:32;101150.95;;;14.85;100.00
51259;BME280;37327;54.254;18.504;2022-07-12T04:24:48;101153.20;;;15.03;100.00
51259;BME280;37327;54.254;18.504;2022-07-12T04:28:03;101148.41;;;15.05;100.00
51259;BME280;37327;54.254;18.504;2022-07-12T04:31:18;101143.34;;;15.01;100.00
51259;BME280;37327;54.254;18.504;2022-07-12T04:34:29;101153.59;;;14.99;100.00
51259;BME280;37327;54.254;18.504;2022-07-12T04:37:42;101143.76;;;14.98;100.00
51259;BME280;37327;54.254;18.504;2022-07-12T04:40:59;101141.87;;;14.99;100.00
51259;BME280;37327;54.254;18.504;2022-07-12T04:44:14;101147.12;;;15.00;100.00
51259;BME280;37327;54.254;18.504;2022-07-12T04:47:25;101150.48;;;15.03;100.00
51259;BME280;37327;54.254;18.504;2022-07-12T04:50:57;101138.17;;;15.07;100.00
51259;BME280;37327;54.254;18.504;2022-07-12T04:54:12;101137.19;;;15.14;100.00
51259;BME280;37327;54.254;18.504;2022-07-12T04:57:17;101140.37;;;15.18;100.00
51259;BME280;37327;54.254;18.504;2022-07-12T05:00:24;101140.81;;;15.22;100.00
51259;BME280;37327;54.254;18.504;2022-07-12T05:03:40;101136.66;;;15.26;100.00
51259;BME280;37327;54.254;18.504;2022-07-12T05:06:54;101121.43;;;15.31;100.00
51259;BME280;37327;54.254;18.504;2022-07-12T05:13:28;101141.98;;;15.40;100.00
51259;BME280;37327;54.254;18.504;2022-07-12T05:16:42;101151.05;;;15.48;100.00
51259;BME280;37327;54.254;18.504;2022-07-12T05:19:55;101141.89;;;15.55;100.00
51259;BME280;37327;54.254;18.504;2022-07-12T05:23:07;101144.45;;;15.64;99.68
51259;BME280;37327;54.254;18.504;2022-07-12T05:26:21;101139.07;;;15.70;99.31
51259;BME280;37327;54.254;18.504;2022-07-12T05:29:29;101143.93;;;15.75;99.13
51259;BME280;37327;54.254;18.504;2022-07-12T05:32:43;101141.68;;;15.85;99.14
51259;BME280;37327;54.254;18.504;2022-07-12T05:35:47;101142.12;;;15.89;98.20
51259;BME280;37327;54.254;18.504;2022-07-12T05:38:55;101154.09;;;15.94;98.32
51259;BME280;37327;54.254;18.504;2022-07-12T05:42:24;101139.41;;;15.95;96.57
51259;BME280;37327;54.254;18.504;2022-07-12T05:45:29;101143.22;;;16.01;97.05
51259;BME280;37327;54.254;18.504;2022-07-12T05:48:38;101147.02;;;16.07;96.24
51259;BME280;37327;54.254;18.504;2022-07-12T05:51:47;101154.17;;;16.14;96.21
51259;BME280;37327;54.254;18.504;2022-07-12T05:55:02;101144.60;;;16.25;95.55
51259;BME280;37327;54.254;18.504;2022-07-12T05:58:07;101140.85;;;16.33;94.97
51259;BME280;37327;54.254;18.504;2022-07-12T06:01:17;101142.95;;;16.37;94.42
51259;BME280;37327;54.254;18.504;2022-07-12T06:04:23;101147.14;;;16.40;93.46
51259;BME280;37327;54.254;18.504;2022-07-12T06:07:54;101146.11;;;16.41;93.28
51259;BME280;37327;54.254;18.504;2022-07-12T06:11:11;101149.28;;;16.51;93.34
51259;BME280;37327;54.254;18.504;2022-07-12T06:14:27;101140.52;;;16.63;92.51
51259;BME280;37327;54.254;18.504;2022-07-12T06:17:35;101143.87;;;16.65;90.95
51259;BME280;37327;54.254;18.504;2022-07-12T06:20:43;101139.69;;;16.69;91.07
51259;BME280;37327;54.254;18.504;2022-07-12T06:23:48;101143.04;;;16.71;90.76
51259;BME280;37327;54.254;18.504;2022-07-12T06:27:07;101138.91;;;16.82;90.66
51259;BME280;37327;54.254;18.504;2022-07-12T06:30:20;101139.33;;;16.92;89.97
51259;BME280;37327;54.254;18.504;2022-07-12T06:33:29;101135.34;;;16.94;89.24
51259;BME280;37327;54.254;18.504;2022-07-12T06:36:37;101126.12;;;17.02;90.07
51259;BME280;37327;54.254;18.504;2022-07-12T06:39:50;101133.88;;;17.12;90.02
51259;BME280;37327;54.254;18.504;2022-07-12T06:42:59;101140.19;;;17.19;89.51
51259;BME280;37327;54.254;18.504;2022-07-12T06:46:13;101134.92;;;17.24;87.85
51259;BME280;37327;54.254;18.504;2022-07-12T06:49:27;101144.80;;;17.25;87.17
51259;BME280;37327;54.254;18.504;2022-07-12T06:52:36;101151.08;;;17.26;86.71
51259;BME280;37327;54.254;18.504;2022-07-12T06:56:08;101139.34;;;17.25;86.84
51259;BME280;37327;54.254;18.504;2022-07-12T06:59:14;101148.37;;;17.32;85.73
51259;BME280;37327;54.254;18.504;2022-07-12T07:02:23;101147.71;;;17.44;83.97
51259;BME280;37327;54.254;18.504;2022-07-12T07:05:36;101138.05;;;17.54;83.38
51259;BME280;37327;54.254;18.504;2022-07-12T07:08:46;101146.24;;;17.54;82.39
51259;BME280;37327;54.254;18.504;2022-07-12T07:11:54;101150.45;;;17.50;82.50
51259;BME280;37327;54.254;18.504;2022-07-12T07:15:06;101146.87;;;17.56;82.50
51259;BME280;37327;54.254;18.504;2022-07-12T07:18:14;101157.36;;;17.53;82.12
51259;BME280;37327;54.254;18.504;2022-07-12T07:21:27;101153.59;;;17.54;82.02
51259;BME280;37327;54.254;18.504;2022-07-12T07:24:31;101155.88;;;17.57;81.86
51259;BME280;37327;54.254;18.504;2022-07-12T07:28:01;101151.91;;;17.60;81.69
51259;BME280;37327;54.254;18.504;2022-07-12T07:31:09;101155.66;;;17.65;81.00
51259;BME280;37327;54.254;18.504;2022-07-12T07:34:17;101143.07;;;17.64;78.69
51259;BME280;37327;54.254;18.504;2022-07-12T07:37:26;101143.91;;;17.71;78.67
51259;BME280;37327;54.254;18.504;2022-07-12T07:40:38;101143.68;;;17.80;77.95
51259;BME280;37327;54.254;18.504;2022-07-12T07:47:16;101141.44;;;18.22;76.82
51259;BME280;37327;54.254;18.504;2022-07-12T07:50:45;101138.38;;;18.43;74.99
51259;BME280;37327;54.254;18.504;2022-07-12T07:53:54;101135.16;;;18.60;75.57
51259;BME280;37327;54.254;18.504;2022-07-12T07:57:10;101134.89;;;18.68;74.79
51259;BME280;37327;54.254;18.504;2022-07-12T08:00:21;101148.98;;;18.65;73.28
51259;BME280;37327;54.254;18.504;2022-07-12T08:03:26;101146.10;;;18.60;72.76
51259;BME280;37327;54.254;18.504;2022-07-12T08:06:56;101145.64;;;18.63;71.08
51259;BME280;37327;54.254;18.504;2022-07-12T08:10:02;101143.90;;;18.75;70.38
51259;BME280;37327;54.254;18.504;2022-07-12T08:13:18;101151.41;;;18.86;69.06
51259;BME280;37327;54.254;18.504;2022-07-12T08:16:27;101139.76;;;18.98;69.00
51259;BME280;37327;54.254;18.504;2022-07-12T08:19:40;101135.69;;;19.07;68.70
51259;BME280;37327;54.254;18.504;2022-07-12T08:22:50;101147.15;;;19.22;68.22
51259;BME280;37327;54.254;18.504;2022-07-12T08:26:22;101140.78;;;19.28;65.96
51259;BME280;37327;54.254;18.504;2022-07-12T08:29:35;101144.73;;;19.32;65.30
51259;BME280;37327;54.254;18.504;2022-07-12T08:32:50;101132.05;;;19.38;64.83
51259;BME280;37327;54.254;18.504;2022-07-12T08:35:54;101135.11;;;19.48;63.13
51259;BME280;37327;54.254;18.504;2022-07-12T08:38:59;101133.46;;;19.66;63.26
51259;BME280;37327;54.254;18.504;2022-07-12T08:42:14;101137.46;;;19.88;63.24
51259;BME280;37327;54.254;18.504;2022-07-12T08:45:24;101131.59;;;20.03;62.22
51259;BME280;37327;54.254;18.504;2022-07-12T08:48:30;101126.72;;;20.05;59.85
51259;BME280;37327;54.254;18.504;2022-07-12T08:52:00;101133.33;;;20.16;59.03
51259;BME280;37327;54.254;18.504;2022-07-12T08:58:36;101132.52;;;20.46;58.09
51259;BME280;37327;54.254;18.504;2022-07-12T09:01:50;101125.27;;;20.51;57.85
51259;BME280;37327;54.254;18.504;2022-07-12T09:05:09;101135.25;;;20.64;58.26
51259;BME280;37327;54.254;18.504;2022-07-12T09:08:17;101120.37;;;20.72;56.77
51259;BME280;37327;54.254;18.504;2022-07-12T09:11:25;101115.74;;;20.84;58.25
51259;BME280;37327;54.254;18.504;2022-07-12T09:14:43;101121.82;;;20.86;57.51
51259;BME280;37327;54.254;18.504;2022-07-12T09:18:03;101119.73;;;20.70;56.83
51259;BME280;37327;54.254;18.504;2022-07-12T09:21:03;101118.84;;;20.58;57.37
51259;BME280;37327;54.254;18.504;2022-07-12T09:24:35;101119.43;;;20.78;56.58
51259;BME280;37327;54.254;18.504;2022-07-12T09:27:53;101118.01;;;20.99;56.50
51259;BME280;37327;54.254;18.504;2022-07-12T09:31:03;101115.78;;;21.32;56.93
51259;BME280;37327;54.254;18.504;2022-07-12T09:34:11;101122.34;;;21.30;56.99
51259;BME280;37327;54.254;18.504;2022-07-12T09:37:37;101110.76;;;21.17;55.71
51259;BME280;37327;54.254;18.504;2022-07-12T09:40:48;101122.34;;;21.19;55.06
51259;BME280;37327;54.254;18.504;2022-07-12T09:43:53;101116.64;;;21.44;55.36
51259;BME280;37327;54.254;18.504;2022-07-12T09:47:02;101110.53;;;21.65;54.91
51259;BME280;37327;54.254;18.504;2022-07-12T09:50:09;101109.70;;;21.65;55.59
51259;BME280;37327;54.254;18.504;2022-07-12T09:53:21;101100.05;;;21.62;55.80
51259;BME280;37327;54.254;18.504;2022-07-12T09:56:30;101100.52;;;21.59;55.00
51259;BME280;37327;54.254;18.504;2022-07-12T09:59:40;101102.67;;;21.45;54.30
51259;BME280;37327;54.254;18.504;2022-07-12T10:02:57;101088.94;;;21.57;54.46
51259;BME280;37327;54.254;18.504;2022-07-12T10:06:08;101104.80;;;21.67;54.44
51259;BME280;37327;54.254;18.504;2022-07-12T10:09:19;101106.82;;;21.72;53.02
51259;BME280;37327;54.254;18.504;2022-07-12T10:12:43;101101.56;;;21.82;52.56
51259;BME280;37327;54.254;18.504;2022-07-12T10:16:01;101094.59;;;21.91;53.01
51259;BME280;37327;54.254;18.504;2022-07-12T10:22:33;101113.98;;;21.84;53.14
51259;BME280;37327;54.254;18.504;2022-07-12T10:25:49;101108.33;;;21.91;52.77
51259;BME280;37327;54.254;18.504;2022-07-12T10:29:06;101114.58;;;21.86;52.20
51259;BME280;37327;54.254;18.504;2022-07-12T10:39:13;101115.55;;;22.21;50.23
51259;BME280;37327;54.254;18.504;2022-07-12T10:42:32;101108.73;;;22.23;50.41
51259;BME280;37327;54.254;18.504;2022-07-12T10:45:44;101106.15;;;22.45;50.13
51259;BME280;37327;54.254;18.504;2022-07-12T10:49:11;101110.76;;;22.57;49.10
51259;BME280;37327;54.254;18.504;2022-07-12T10:52:32;101097.00;;;22.57;48.68
51259;BME280;37327;54.254;18.504;2022-07-12T10:55:32;101092.98;;;22.47;48.55
51259;BME280;37327;54.254;18.504;2022-07-12T10:58:49;101093.66;;;22.55;47.85
51259;BME280;37327;54.254;18.504;2022-07-12T11:02:00;101084.00;;;22.69;47.41
51259;BME280;37327;54.254;18.504;2022-07-12T11:05:05;101092.95;;;22.76;47.33
51259;BME280;37327;54.254;18.504;2022-07-12T11:08:17;101088.78;;;22.74;47.26
51259;BME280;37327;54.254;18.504;2022-07-12T11:11:33;101087.85;;;22.68;47.90
51259;BME280;37327;54.254;18.504;2022-07-12T11:14:40;101074.36;;;22.83;47.83
51259;BME280;37327;54.254;18.504;2022-07-12T11:17:57;101094.13;;;22.97;46.12
51259;BME280;37327;54.254;18.504;2022-07-12T11:21:14;101085.87;;;22.97;45.57
51259;BME280;37327;54.254;18.504;2022-07-12T11:24:23;101091.13;;;22.99;46.31
51259;BME280;37327;54.254;18.504;2022-07-12T11:27:36;101077.52;;;22.92;45.62
51259;BME280;37327;54.254;18.504;2022-07-12T11:30:53;101078.86;;;22.90;45.10
51259;BME280;37327;54.254;18.504;2022-07-12T11:34:05;101088.38;;;22.99;46.19
51259;BME280;37327;54.254;18.504;2022-07-12T11:37:17;101076.45;;;23.10;45.97
51259;BME280;37327;54.254;18.504;2022-07-12T11:40:28;101081.03;;;23.21;45.58
51259;BME280;37327;54.254;18.504;2022-07-12T11:43:36;101083.95;;;22.98;45.36
51259;BME280;37327;54.254;18.504;2022-07-12T11:46:51;101072.01;;;22.92;45.54
51259;BME280;37327;54.254;18.504;2022-07-12T11:49:56;101077.45;;;23.04;45.88
51259;BME280;37327;54.254;18.504;2022-07-12T11:53:00;101086.30;;;23.06;44.86
51259;BME280;37327;54.254;18.504;2022-07-12T11:56:31;101080.70;;;22.84;45.03
51259;BME280;37327;54.254;18.504;2022-07-12T11:59:53;101082.01;;;22.64;45.67
51259;BME280;37327;54.254;18.504;2022-07-12T12:03:00;101081.48;;;22.51;45.34
51259;BME280;37327;54.254;18.504;2022-07-12T12:06:13;101079.43;;;22.58;46.38
51259;BME280;37327;54.254;18.504;2022-07-12T12:09:55;101074.52;;;22.60;45.80
51259;BME280;37327;54.254;18.504;2022-07-12T12:12:51;101079.01;;;22.66;46.04
51259;BME280;37327;54.254;18.504;2022-07-12T12:16:07;101089.78;;;22.67;45.98
51259;BME280;37327;54.254;18.504;2022-07-12T12:19:26;101065.33;;;22.54;45.79
51259;BME280;37327;54.254;18.504;2022-07-12T12:22:39;101077.45;;;22.41;45.56
51259;BME280;37327;54.254;18.504;2022-07-12T12:25:46;101082.83;;;22.48;46.04
51259;BME280;37327;54.254;18.504;2022-07-12T12:29:00;101080.26;;;22.58;45.25
51259;BME280;37327;54.254;18.504;2022-07-12T12:32:20;101074.98;;;22.57;45.23
51259;BME280;37327;54.254;18.504;2022-07-12T12:35:31;101089.68;;;22.62;44.91
51259;BME280;37327;54.254;18.504;2022-07-12T12:38:41;101078.78;;;22.67;45.03
51259;BME280;37327;54.254;18.504;2022-07-12T12:41:49;101070.59;;;22.73;44.88
51259;BME280;37327;54.254;18.504;2022-07-12T12:45:10;101098.35;;;22.71;44.66
51259;BME280;37327;54.254;18.504;2022-07-12T12:48:27;101076.16;;;22.61;44.31
51259;BME280;37327;54.254;18.504;2022-07-12T12:54:59;101070.31;;;22.40;44.54
51259;BME280;37327;54.254;18.504;2022-07-12T12:58:31;101069.80;;;22.15;44.46
51259;BME280;37327;54.254;18.504;2022-07-12T13:01:42;101068.52;;;22.05;45.10
51259;BME280;37327;54.254;18.504;2022-07-12T13:04:59;101057.79;;;21.92;44.42
51259;BME280;37327;54.254;18.504;2022-07-12T13:08:18;101067.45;;;21.95;45.35
51259;BME280;37327;54.254;18.504;2022-07-12T13:11:31;101074.48;;;22.02;45.48
51259;BME280;37327;54.254;18.504;2022-07-12T13:14:46;101081.91;;;22.02;45.08
51259;BME280;37327;54.254;18.504;2022-07-12T13:17:59;101064.00;;;21.99;44.76
51259;BME280;37327;54.254;18.504;2022-07-12T13:21:13;101076.56;;;21.95;44.84
51259;BME280;37327;54.254;18.504;2022-07-12T13:24:29;101076.44;;;21.90;44.72
51259;BME280;37327;54.254;18.504;2022-07-12T13:27:44;101064.75;;;21.83;45.00
51259;BME280;37327;54.254;18.504;2022-07-12T13:30:56;101057.59;;;21.82;45.23
51259;BME280;37327;54.254;18.504;2022-07-12T13:34:04;101065.10;;;21.86;45.20
51259;BME280;37327;54.254;18.504;2022-07-12T13:37:14;101050.13;;;21.94;45.78
51259;BME280;37327;54.254;18.504;2022-07-12T13:40:27;101059.32;;;22.00;46.03
51259;BME280;37327;54.254;18.504;2022-07-12T13:43:37;101060.07;;;21.95;45.51
51259;BME280;37327;54.254;18.504;2022-07-12T13:46:52;101059.72;;;21.92;45.35
51259;BME280;37327;54.254;18.504;2022-07-12T13:50:05;101069.77;;;21.86;45.23
51259;BME280;37327;54.254;18.504;2022-07-12T13:53:20;101059.75;;;21.80;45.22
51259;BME280;37327;54.254;18.504;2022-07-12T13:58:39;101064.53;;;21.73;45.96
51259;BME280;37327;54.254;18.504;2022-07-12T14:01:55;101063.80;;;21.77;46.60
51259;BME280;37327;54.254;18.504;2022-07-12T14:05:10;101054.14;;;21.75;46.24
51259;BME280;37327;54.254;18.504;2022-07-12T14:08:22;101071.60;;;21.68;46.00
51259;BME280;37327;54.254;18.504;2022-07-12T14:11:37;101067.31;;;21.61;45.70
51259;BME280;37327;54.254;18.504;2022-07-12T14:14:50;101060.98;;;21.60;45.83
51259;BME280;37327;54.254;18.504;2022-07-12T14:18:16;101076.53;;;21.55;46.25
51259;BME280;37327;54.254;18.504;2022-07-12T14:21:31;101066.95;;;21.57;46.32
51259;BME280;37327;54.254;18.504;2022-07-12T14:24:49;101059.22;;;21.54;46.26
51259;BME280;37327;54.254;18.504;2022-07-12T14:28:20;101068.38;;;21.48;46.10
51259;BME280;37327;54.254;18.504;2022-07-12T14:31:36;101079.88;;;21.45;46.39
51259;BME280;37327;54.254;18.504;2022-07-12T14:34:58;101067.67;;;21.41;46.24
51259;BME280;37327;54.254;18.504;2022-07-12T14:38:16;101056.33;;;21.37;46.16
51259;BME280;37327;54.254;18.504;2022-07-12T14:41:28;101069.93;;;21.32;46.41
51259;BME280;37327;54.254;18.504;2022-07-12T14:44:40;101072.09;;;21.30;46.44
51259;BME280;37327;54.254;18.504;2022-07-12T14:47:56;101063.61;;;21.32;46.61
51259;BME280;37327;54.254;18.504;2022-07-12T14:51:09;101044.16;;;21.33;46.77
51259;BME280;37327;54.254;18.504;2022-07-12T14:54:28;101063.61;;;21.32;46.92
51259;BME280;37327;54.254;18.504;2022-07-12T14:57:41;101056.20;;;21.32;46.91
51259;BME280;37327;54.254;18.504;2022-07-12T15:01:10;101050.71;;;21.32;47.55
51259;BME280;37327;54.254;18.504;2022-07-12T15:04:15;101046.08;;;21.33;47.45
51259;BME280;37327;54.254;18.504;2022-07-12T15:07:25;101031.85;;;21.36;47.36
51259;BME280;37327;54.254;18.504;2022-07-12T15:10:45;101032.94;;;21.35;47.44
51259;BME280;37327;54.254;18.504;2022-07-12T15:13:59;101048.32;;;21.36;47.37
51259;BME280;37327;54.254;18.504;2022-07-12T15:17:31;101036.28;;;21.37;48.14
51259;BME280;37327;54.254;18.504;2022-07-12T15:20:43;101039.74;;;21.44;48.41
51259;BME280;37327;54.254;18.504;2022-07-12T15:23:53;101029.93;;;21.48;48.36
51259;BME280;37327;54.254;18.504;2022-07-12T15:26:59;101037.71;;;21.51;48.14
51259;BME280;37327;54.254;18.504;2022-07-12T15:30:16;101030.79;;;21.48;48.11
51259;BME280;37327;54.254;18.504;2022-07-12T15:33:32;101021.11;;;21.46;47.43
51259;BME280;37327;54.254;18.504;2022-07-12T15:36:44;101025.38;;;21.42;47.62
51259;BME280;37327;54.254;18.504;2022-07-12T15:39:59;101027.54;;;21.40;47.78
51259;BME280;37327;54.254;18.504;2022-07-12T15:43:21;101014.30;;;21.37;47.51
51259;BME280;37327;54.254;18.504;2022-07-12T15:46:36;101022.19;;;21.33;47.48
51259;BME280;37327;54.254;18.504;2022-07-12T15:49:42;101020.49;;;21.32;47.71
51259;BME280;37327;54.254;18.504;2022-07-12T15:52:47;101017.52;;;21.34;48.07
51259;BME280;37327;54.254;18.504;2022-07-12T15:56:09;101004.88;;;21.33;48.01
51259;BME280;37327;54.254;18.504;2022-07-12T15:59:24;101013.13;;;21.33;47.74
51259;BME280;37327;54.254;18.504;2022-07-12T16:02:57;101036.16;;;21.32;47.59
51259;BME280;37327;54.254;18.504;2022-07-12T16:06:09;101020.14;;;21.28;47.26
51259;BME280;37327;54.254;18.504;2022-07-12T16:09:25;101015.16;;;21.25;47.54
51259;BME280;37327;54.254;18.504;2022-07-12T16:12:37;101013.73;;;21.23;47.55
51259;BME280;37327;54.254;18.504;2022-07-12T16:15:47;101010.63;;;21.19;47.72
51259;BME280;37327;54.254;18.504;2022-07-12T16:19:16;101002.86;;;21.16;47.99
51259;BME280;37327;54.254;18.504;2022-07-12T16:22:21;101024.95;;;21.21;48.17
51259;BME280;37327;54.254;18.504;2022-07-12T16:25:32;101012.78;;;21.17;47.46
51259;BME280;37327;54.254;18.504;2022-07-12T16:28:45;101002.73;;;21.11;47.92
51259;BME280;37327;54.254;18.504;2022-07-12T16:32:02;101005.48;;;21.11;47.89
51259;BME280;37327;54.254;18.504;2022-07-12T16:35:21;101013.12;;;21.09;48.04
51259;BME280;37327;54.254;18.504;2022-07-12T16:38:34;101006.80;;;21.08;48.38
51259;BME280;37327;54.254;18.504;2022-07-12T16:41:38;101003.70;;;21.05;48.16
51259;BME280;37327;54.254;18.504;2022-07-12T16:45:11;101008.85;;;21.01;48.08
51259;BME280;37327;54.254;18.504;2022-07-12T16:48:18;101005.84;;;21.03;48.09
51259;BME280;37327;54.254;18.504;2022-07-12T16:51:25;101000.35;;;21.03;48.20
51259;BME280;37327;54.254;18.504;2022-07-12T16:54:32;101011.34;;;21.03;48.23
51259;BME280;37327;54.254;18.504;2022-07-12T16:57:43;100995.36;;;21.00;48.52
51259;BME280;37327;54.254;18.504;2022-07-12T17:00:55;100995.83;;;20.97;48.39
51259;BME280;37327;54.254;18.504;2022-07-12T17:04:02;101008.36;;;20.93;48.25
51259;BME280;37327;54.254;18.504;2022-07-12T17:07:11;101004.79;;;20.92;48.22
51259;BME280;37327;54.254;18.504;2022-07-12T17:10:21;100989.88;;;20.88;48.58